Time;durP1;ratioP1;P1;durP2;ratioP2;P2;SDS_P1;SDS_P2;PMS_P1;PMS_P2;Temp;Humidity;BMP_temperature;BMP_pressure;BME280_temperature;BME280_humidity;BME280_pressure;Samples;Min_cycle;Max_cycle;Signal;HPM_P1;HPM_P2
2022/07/09 00:01:09;;;;;;;;;5.60;5.00;;;;;;;;5036810;28;8768;-80
2022/07/09 00:03:36;;;;;;;;;5.20;5.20;;;;;;;;5035923;28;9614;-80
2022/07/09 00:06:03;;;;;;;;;7.60;5.20;;;;;;;;5019986;28;8787;-75
2022/07/09 00:08:30;;;;;;;;;7.80;7.20;;;;;;;;5037312;28;8772;-74
2022/07/09 00:10:56;;;;;;;;;7.00;5.60;;;;;;;;5037531;28;8773;-75
2022/07/09 00:13:23;;;;;;;;;3.80;3.80;;;;;;;;5036663;28;8812;-75
2022/07/09 00:15:50;;;;;;;;;7.80;4.80;;;;;;;;5037293;28;8819;-80
2022/07/09 00:18:16;;;;;;;;;5.80;5.60;;;;;;;;5035850;28;8832;-75
2022/07/09 00:20:43;;;;;;;;;5.80;4.80;;;;;;;;5037194;28;8804;-74
2022/07/09 00:23:10;;;;;;;;;5.20;4.20;;;;;;;;5036052;28;8898;-75
2022/07/09 00:25:36;;;;;;;;;4.20;3.80;;;;;;;;5019483;28;8792;-78
2022/07/09 00:28:03;;;;;;;;;6.00;5.20;;;;;;;;5020212;28;8795;-75
2022/07/09 00:30:29;;;;;;;;;5.20;5.00;;;;;;;;5036472;28;8780;-74
2022/07/09 00:32:56;;;;;;;;;3.40;3.40;;;;;;;;5019402;28;8772;-75
2022/07/09 00:35:23;;;;;;;;;5.00;3.20;;;;;;;;5035554;28;8800;-75
2022/07/09 00:37:50;;;;;;;;;4.40;3.80;;;;;;;;5035547;28;8761;-75
2022/07/09 00:40:16;;;;;;;;;4.80;4.60;;;;;;;;5020076;28;8819;-74
2022/07/09 00:42:43;;;;;;;;;5.00;4.40;;;;;;;;5036516;28;8858;-74
2022/07/09 00:45:09;;;;;;;;;6.20;4.80;;;;;;;;5036836;28;8760;-74
2022/07/09 00:47:36;;;;;;;;;6.00;6.00;;;;;;;;5018848;28;8784;-74
2022/07/09 00:50:03;;;;;;;;;6.20;5.00;;;;;;;;5036853;28;8816;-74
2022/07/09 00:52:29;;;;;;;;;6.00;5.80;;;;;;;;5035359;28;8789;-77
2022/07/09 00:54:56;;;;;;;;;9.00;5.40;;;;;;;;5037329;28;8748;-74
2022/07/09 00:57:22;;;;;;;;;4.80;3.80;;;;;;;;5034935;28;8820;-74
2022/07/09 00:59:49;;;;;;;;;6.40;4.60;;;;;;;;5018970;28;8772;-75
2022/07/09 01:02:16;;;;;;;;;7.60;6.40;;;;;;;;5036607;28;8804;-74
2022/07/09 01:04:42;;;;;;;;;5.60;5.60;;;;;;;;5034340;28;8757;-75
2022/07/09 01:07:09;;;;;;;;;12.20;7.00;;;;;;;;5037024;28;8748;-74
2022/07/09 01:09:36;;;;;;;;;6.80;6.80;;;;;;;;5034674;28;8979;-75
2022/07/09 01:12:02;;;;;;;;;6.00;6.00;;;;;;;;5035106;28;8760;-75
2022/07/09 01:14:29;;;;;;;;;8.20;5.40;;;;;;;;5034853;28;9489;-74
2022/07/09 01:16:59;;;;;;;;;5.00;5.00;;;;;;;;5018621;28;8757;-74
2022/07/09 01:19:27;;;;;;;;;4.80;4.80;;;;;;;;5014866;28;8819;-79
2022/07/09 01:21:54;;;;;;;;;3.20;3.20;;;;;;;;4999649;28;8837;-80
2022/07/09 01:24:20;;;;;;;;;4.80;4.80;;;;;;;;5015837;28;8853;-74
2022/07/09 01:26:47;;;;;;;;;6.00;5.00;;;;;;;;5016200;28;8782;-75
2022/07/09 01:29:14;;;;;;;;;4.60;4.60;;;;;;;;5014812;28;8770;-80
2022/07/09 01:31:40;;;;;;;;;6.20;6.20;;;;;;;;5016061;28;8881;-74
2022/07/09 01:34:07;;;;;;;;;5.40;5.40;;;;;;;;5024911;28;8825;-83
2022/07/09 01:36:34;;;;;;;;;5.20;5.20;;;;;;;;5014138;28;8795;-75
2022/07/09 01:39:00;;;;;;;;;4.20;4.20;;;;;;;;4998393;28;8824;-79
2022/07/09 01:41:27;;;;;;;;;6.00;4.20;;;;;;;;4997957;28;8818;-77
2022/07/09 01:43:54;;;;;;;;;5.60;5.40;;;;;;;;5016043;28;8794;-74
2022/07/09 01:46:20;;;;;;;;;5.60;5.60;;;;;;;;5016295;28;8794;-79
2022/07/09 01:48:47;;;;;;;;;8.00;7.40;;;;;;;;4998061;28;8787;-75
2022/07/09 01:51:13;;;;;;;;;5.60;5.40;;;;;;;;5014338;28;8809;-74
2022/07/09 01:53:40;;;;;;;;;7.80;6.00;;;;;;;;5015459;28;8783;-81
2022/07/09 01:56:07;;;;;;;;;9.60;5.40;;;;;;;;5015593;28;8898;-74
2022/07/09 01:58:34;;;;;;;;;8.40;7.00;;;;;;;;5014210;28;8771;-75
2022/07/09 02:01:01;;;;;;;;;8.40;6.40;;;;;;;;5014920;28;8786;-75
2022/07/09 02:03:27;;;;;;;;;5.20;5.20;;;;;;;;5022487;28;8825;-74
2022/07/09 02:05:54;;;;;;;;;7.60;5.40;;;;;;;;5035223;28;8784;-75
2022/07/09 02:08:20;;;;;;;;;7.40;6.60;;;;;;;;5035003;28;8846;-80
2022/07/09 02:10:47;;;;;;;;;10.20;9.00;;;;;;;;5033955;28;8756;-75
2022/07/09 02:13:14;;;;;;;;;8.00;8.00;;;;;;;;5035927;28;8911;-79
2022/07/09 02:15:40;;;;;;;;;8.80;8.40;;;;;;;;5017346;28;8838;-74
2022/07/09 02:18:07;;;;;;;;;11.40;10.40;;;;;;;;5034591;28;8828;-75
2022/07/09 02:20:33;;;;;;;;;11.00;9.20;;;;;;;;5034770;28;8764;-75
2022/07/09 02:23:00;;;;;;;;;10.40;9.20;;;;;;;;5033777;28;9404;-75
2022/07/09 02:25:27;;;;;;;;;9.40;8.60;;;;;;;;5033252;28;8827;-75
2022/07/09 02:27:54;;;;;;;;;5.20;5.20;;;;;;;;5035586;28;8783;-78
2022/07/09 02:30:20;;;;;;;;;9.60;7.00;;;;;;;;5034416;28;8791;-74
2022/07/09 02:32:47;;;;;;;;;11.00;10.20;;;;;;;;5034765;28;8788;-80
2022/07/09 02:35:14;;;;;;;;;9.20;9.20;;;;;;;;5034777;28;8780;-80
2022/07/09 02:37:42;;;;;;;;;12.00;9.00;;;;;;;;5033367;28;8862;-74
2022/07/09 02:40:09;;;;;;;;;7.60;6.20;;;;;;;;5018046;28;8894;-78
2022/07/09 02:42:36;;;;;;;;;7.40;7.20;;;;;;;;5033133;28;8938;-74
2022/07/09 02:45:03;;;;;;;;;10.40;7.40;;;;;;;;5034700;28;8791;-75
2022/07/09 02:47:30;;;;;;;;;8.20;8.20;;;;;;;;5033283;28;8834;-75
2022/07/09 02:49:56;;;;;;;;;4.40;4.40;;;;;;;;5033236;28;9465;-74
2022/07/09 02:52:23;;;;;;;;;9.20;7.80;;;;;;;;5017357;28;8816;-74
2022/07/09 02:54:50;;;;;;;;;9.60;9.00;;;;;;;;5033910;28;8906;-80
2022/07/09 02:57:16;;;;;;;;;8.80;8.80;;;;;;;;5033201;28;8777;-75
2022/07/09 02:59:43;;;;;;;;;8.20;8.00;;;;;;;;5033319;28;8776;-74
2022/07/09 03:02:09;;;;;;;;;10.00;9.00;;;;;;;;5034584;28;8772;-75
2022/07/09 03:04:36;;;;;;;;;6.00;6.00;;;;;;;;5034228;28;9448;-75
2022/07/09 03:07:03;;;;;;;;;10.00;7.00;;;;;;;;5017366;28;8780;-78
2022/07/09 03:09:29;;;;;;;;;13.20;10.20;;;;;;;;5032787;28;8776;-74
2022/07/09 03:11:56;;;;;;;;;6.80;6.80;;;;;;;;5033125;28;9428;-80
2022/07/09 03:14:22;;;;;;;;;8.40;7.40;;;;;;;;5033005;28;8780;-80
2022/07/09 03:16:49;;;;;;;;;7.60;6.80;;;;;;;;5034409;28;8834;-75
2022/07/09 03:19:16;;;;;;;;;8.60;8.60;;;;;;;;5033575;28;8815;-80
2022/07/09 03:21:42;;;;;;;;;7.00;6.20;;;;;;;;5033021;28;9424;-80
2022/07/09 03:24:09;;;;;;;;;4.80;4.40;;;;;;;;5033118;28;8776;-74
2022/07/09 03:26:36;;;;;;;;;7.00;7.00;;;;;;;;5034021;28;8907;-75
2022/07/09 03:29:02;;;;;;;;;6.60;6.00;;;;;;;;5036431;28;8760;-75
2022/07/09 03:31:29;;;;;;;;;7.00;5.60;;;;;;;;5036877;28;8780;-75
2022/07/09 03:33:56;;;;;;;;;7.80;7.00;;;;;;;;5037106;28;8765;-79
2022/07/09 03:36:23;;;;;;;;;6.40;6.40;;;;;;;;5036416;28;8910;-76
2022/07/09 03:38:49;;;;;;;;;7.00;5.20;;;;;;;;5038016;28;8799;-75
2022/07/09 03:41:16;;;;;;;;;8.20;7.20;;;;;;;;5020487;28;8779;-74
2022/07/09 03:43:43;;;;;;;;;6.60;6.60;;;;;;;;5037012;28;9451;-75
2022/07/09 03:46:09;;;;;;;;;8.40;6.20;;;;;;;;5037403;28;8776;-75
2022/07/09 03:48:40;;;;;;;;;7.40;7.00;;;;;;;;5036103;28;8788;-75
2022/07/09 03:51:06;;;;;;;;;6.60;6.60;;;;;;;;5037544;28;8826;-75
2022/07/09 03:53:33;;;;;;;;;7.40;6.20;;;;;;;;5019992;28;8757;-75
2022/07/09 03:56:00;;;;;;;;;6.40;6.40;;;;;;;;5037867;28;8768;-75
2022/07/09 03:58:27;;;;;;;;;9.60;7.60;;;;;;;;5036161;28;8898;-74
2022/07/09 04:00:54;;;;;;;;;7.60;6.40;;;;;;;;5037179;28;8764;-86
2022/07/09 04:03:21;;;;;;;;;6.40;6.40;;;;;;;;5035768;28;8764;-75
2022/07/09 04:05:47;;;;;;;;;6.60;5.80;;;;;;;;5037296;28;8776;-74
2022/07/09 04:08:14;;;;;;;;;11.60;9.20;;;;;;;;5037193;28;8799;-74
2022/07/09 04:10:41;;;;;;;;;6.80;6.80;;;;;;;;5036322;28;8752;-74
2022/07/09 04:13:08;;;;;;;;;8.20;7.00;;;;;;;;5036296;28;8757;-74
2022/07/09 04:15:34;;;;;;;;;7.20;7.20;;;;;;;;5035767;28;8768;-74
2022/07/09 04:18:01;;;;;;;;;7.20;5.40;;;;;;;;5037138;28;8808;-75
2022/07/09 04:20:28;;;;;;;;;8.20;7.20;;;;;;;;5035819;28;8768;-74
2022/07/09 04:22:54;;;;;;;;;7.40;6.40;;;;;;;;5019739;28;8768;-81
2022/07/09 04:25:21;;;;;;;;;9.00;7.60;;;;;;;;5037154;28;8799;-74
2022/07/09 04:27:48;;;;;;;;;8.40;8.00;;;;;;;;5037267;28;8768;-79
2022/07/09 04:30:14;;;;;;;;;7.80;7.00;;;;;;;;5035818;28;8764;-75
2022/07/09 04:32:41;;;;;;;;;7.40;7.40;;;;;;;;5019302;28;8784;-75
2022/07/09 04:35:08;;;;;;;;;6.80;6.80;;;;;;;;5037093;28;9444;-75
2022/07/09 04:37:34;;;;;;;;;7.20;6.20;;;;;;;;5049926;28;8940;-75
2022/07/09 04:40:01;;;;;;;;;7.80;7.80;;;;;;;;5022201;28;8775;-75
2022/07/09 04:42:28;;;;;;;;;7.40;7.40;;;;;;;;5022251;28;8781;-75
2022/07/09 04:44:55;;;;;;;;;10.60;8.00;;;;;;;;5056692;28;8778;-74
2022/07/09 04:47:21;;;;;;;;;7.20;7.20;;;;;;;;5038726;28;8770;-75
2022/07/09 04:49:48;;;;;;;;;8.00;8.00;;;;;;;;5019092;28;8846;-74
2022/07/09 04:52:19;;;;;;;;;6.80;6.80;;;;;;;;5019727;28;8800;-74
2022/07/09 04:54:46;;;;;;;;;6.00;6.00;;;;;;;;5019738;28;8800;-79
2022/07/09 04:57:13;;;;;;;;;9.00;7.60;;;;;;;;5018852;28;8931;-80
2022/07/09 04:59:40;;;;;;;;;7.20;7.20;;;;;;;;5018993;28;8788;-75
2022/07/09 05:02:06;;;;;;;;;6.80;6.00;;;;;;;;5018802;28;8854;-75
2022/07/09 05:04:33;;;;;;;;;6.40;6.40;;;;;;;;5052344;28;9214;-74
2022/07/09 05:07:02;;;;;;;;;8.40;7.20;;;;;;;;5039495;28;9423;-75
2022/07/09 05:09:29;;;;;;;;;8.60;7.80;;;;;;;;5038881;28;8850;-74
2022/07/09 05:11:55;;;;;;;;;7.00;7.00;;;;;;;;5038391;28;8758;-75
2022/07/09 05:14:22;;;;;;;;;8.40;8.40;;;;;;;;5055896;28;8775;-75
2022/07/09 05:16:49;;;;;;;;;7.00;7.00;;;;;;;;5038702;28;8892;-75
2022/07/09 05:19:15;;;;;;;;;8.20;7.00;;;;;;;;5056459;28;8798;-75
2022/07/09 05:21:42;;;;;;;;;8.20;8.00;;;;;;;;5038104;28;8885;-74
2022/07/09 05:24:09;;;;;;;;;7.60;7.00;;;;;;;;5055953;28;8770;-81
2022/07/09 05:26:36;;;;;;;;;7.00;6.60;;;;;;;;5055739;28;8759;-75
2022/07/09 05:29:03;;;;;;;;;5.40;5.40;;;;;;;;5038096;28;8751;-75
2022/07/09 05:31:30;;;;;;;;;4.60;3.80;;;;;;;;5055650;28;8864;-80
2022/07/09 05:33:56;;;;;;;;;5.60;5.00;;;;;;;;5038755;28;8755;-75
2022/07/09 05:36:23;;;;;;;;;7.40;7.00;;;;;;;;5034054;28;8792;-75
2022/07/09 05:38:50;;;;;;;;;4.00;4.00;;;;;;;;5018261;28;8780;-74
2022/07/09 05:41:18;;;;;;;;;7.00;7.00;;;;;;;;5018275;28;8791;-75
2022/07/09 05:43:44;;;;;;;;;5.00;5.00;;;;;;;;5034623;28;8811;-75
2022/07/09 05:46:11;;;;;;;;;4.00;3.20;;;;;;;;5036359;28;8894;-75
2022/07/09 05:48:38;;;;;;;;;5.00;5.00;;;;;;;;5033844;28;8985;-75
2022/07/09 05:51:04;;;;;;;;;7.80;7.20;;;;;;;;5017640;28;8780;-74
2022/07/09 05:53:31;;;;;;;;;4.80;4.80;;;;;;;;5017714;28;8800;-77
2022/07/09 05:55:57;;;;;;;;;5.20;5.20;;;;;;;;5034451;28;8784;-74
2022/07/09 05:58:24;;;;;;;;;4.20;3.60;;;;;;;;5035879;28;8850;-75
2022/07/09 06:00:51;;;;;;;;;4.20;3.00;;;;;;;;5035864;28;8772;-75
2022/07/09 06:03:17;;;;;;;;;7.40;7.00;;;;;;;;5035214;28;8827;-75
2022/07/09 06:05:44;;;;;;;;;7.20;5.60;;;;;;;;5035352;28;9841;-75
2022/07/09 06:08:11;;;;;;;;;5.00;5.00;;;;;;;;5033975;28;8833;-75
2022/07/09 06:10:38;;;;;;;;;6.60;6.00;;;;;;;;5017629;28;8792;-81
2022/07/09 06:13:05;;;;;;;;;5.80;5.00;;;;;;;;5035986;28;8790;-75
2022/07/09 06:15:31;;;;;;;;;7.20;4.80;;;;;;;;5034831;28;9510;-80
2022/07/09 06:17:58;;;;;;;;;6.40;5.60;;;;;;;;5033696;28;8820;-75
2022/07/09 06:20:25;;;;;;;;;6.20;6.00;;;;;;;;5034768;28;8792;-75
2022/07/09 06:22:51;;;;;;;;;4.40;4.40;;;;;;;;5033513;28;8795;-75
2022/07/09 06:25:18;;;;;;;;;6.20;5.60;;;;;;;;5017961;28;8799;-75
2022/07/09 06:27:45;;;;;;;;;4.80;4.80;;;;;;;;5017651;28;8881;-75
2022/07/09 06:30:11;;;;;;;;;7.20;5.80;;;;;;;;5033634;28;8830;-81
2022/07/09 06:32:38;;;;;;;;;4.00;4.00;;;;;;;;5033255;28;8902;-75
2022/07/09 06:35:05;;;;;;;;;5.80;5.60;;;;;;;;5034825;28;8902;-75
2022/07/09 06:37:31;;;;;;;;;4.00;4.00;;;;;;;;5047230;28;8845;-76
2022/07/09 06:39:59;;;;;;;;;4.80;4.80;;;;;;;;5037827;28;8770;-80
2022/07/09 06:42:26;;;;;;;;;9.00;6.00;;;;;;;;5036685;28;8791;-86
2022/07/09 06:44:53;;;;;;;;;6.00;5.00;;;;;;;;5036837;28;8771;-74
2022/07/09 06:47:19;;;;;;;;;6.00;6.00;;;;;;;;5020232;28;8853;-75
2022/07/09 06:49:46;;;;;;;;;6.60;5.60;;;;;;;;5036408;28;8751;-75
2022/07/09 06:52:13;;;;;;;;;6.00;6.00;;;;;;;;5055210;28;8798;-75
2022/07/09 06:54:39;;;;;;;;;4.00;4.00;;;;;;;;5054250;28;8787;-75
2022/07/09 06:57:06;;;;;;;;;9.20;5.00;;;;;;;;5054435;28;8771;-74
2022/07/09 06:59:33;;;;;;;;;7.20;5.60;;;;;;;;5036493;28;8778;-75
2022/07/09 07:02:00;;;;;;;;;4.60;4.20;;;;;;;;5036938;28;8801;-75
2022/07/09 07:04:26;;;;;;;;;5.00;4.40;;;;;;;;5015850;28;8809;-75
2022/07/09 07:06:53;;;;;;;;;4.80;4.20;;;;;;;;5017614;28;8775;-75
2022/07/09 07:09:21;;;;;;;;;4.60;3.40;;;;;;;;5000263;28;8757;-80
2022/07/09 07:11:49;;;;;;;;;3.80;3.80;;;;;;;;5016659;28;8748;-75
2022/07/09 07:14:16;;;;;;;;;3.00;3.00;;;;;;;;5034479;28;8807;-74
2022/07/09 07:16:43;;;;;;;;;4.60;4.60;;;;;;;;5016946;28;8757;-74
2022/07/09 07:19:10;;;;;;;;;3.00;3.00;;;;;;;;5030212;28;8794;-74
2022/07/09 07:21:40;;;;;;;;;3.60;3.60;;;;;;;;5053741;28;8767;-75
2022/07/09 07:24:06;;;;;;;;;5.40;3.00;;;;;;;;5036586;28;9490;-79
2022/07/09 07:26:33;;;;;;;;;6.60;4.00;;;;;;;;5019919;28;8762;-74
2022/07/09 07:29:00;;;;;;;;;4.20;3.80;;;;;;;;5036707;28;8774;-74
2022/07/09 07:31:27;;;;;;;;;2.80;2.60;;;;;;;;5019710;28;8847;-74
2022/07/09 07:33:53;;;;;;;;;3.00;3.00;;;;;;;;5036964;28;8751;-74
2022/07/09 07:36:20;;;;;;;;;4.00;3.00;;;;;;;;5053476;28;8783;-75
2022/07/09 07:38:47;;;;;;;;;3.80;3.00;;;;;;;;5019813;28;8783;-75
2022/07/09 07:41:13;;;;;;;;;7.00;5.00;;;;;;;;5020060;28;8832;-81
2022/07/09 07:43:42;;;;;;;;;3.80;2.60;;;;;;;;5053912;28;9511;-75
2022/07/09 07:46:09;;;;;;;;;4.00;2.80;;;;;;;;5036851;28;8869;-75
2022/07/09 07:48:36;;;;;;;;;3.60;3.00;;;;;;;;5035694;28;9422;-75
2022/07/09 07:51:03;;;;;;;;;3.80;3.00;;;;;;;;5036259;28;8770;-86
2022/07/09 07:53:32;;;;;;;;;4.00;3.00;;;;;;;;5036086;28;8782;-74
2022/07/09 07:56:00;;;;;;;;;3.20;3.20;;;;;;;;5036087;28;8773;-75
2022/07/09 07:58:27;;;;;;;;;4.60;4.60;;;;;;;;5035952;28;8846;-74
2022/07/09 08:00:54;;;;;;;;;4.40;4.20;;;;;;;;5054590;28;8873;-75
2022/07/09 08:03:20;;;;;;;;;3.00;3.00;;;;;;;;5035466;28;9090;-75
2022/07/09 08:05:47;;;;;;;;;2.00;2.00;;;;;;;;5036318;28;8770;-74
2022/07/09 08:08:14;;;;;;;;;4.20;2.40;;;;;;;;5019745;28;8775;-74
2022/07/09 08:10:40;;;;;;;;;2.80;2.00;;;;;;;;5036138;28;8790;-75
2022/07/09 08:13:07;;;;;;;;;4.00;4.00;;;;;;;;5036832;28;8791;-74
2022/07/09 08:15:34;;;;;;;;;3.40;3.40;;;;;;;;5038231;28;8846;-75
2022/07/09 08:18:00;;;;;;;;;4.00;3.00;;;;;;;;5057177;28;8821;-79
2022/07/09 08:20:27;;;;;;;;;3.00;3.00;;;;;;;;5038994;28;8778;-75
2022/07/09 08:22:54;;;;;;;;;4.80;3.00;;;;;;;;5039614;28;9438;-74
2022/07/09 08:25:20;;;;;;;;;3.60;3.60;;;;;;;;5039988;28;8747;-75
2022/07/09 08:27:49;;;;;;;;;5.00;3.00;;;;;;;;5039593;28;8888;-74
2022/07/09 08:30:15;;;;;;;;;4.40;3.40;;;;;;;;5039250;28;8767;-75
2022/07/09 08:32:42;;;;;;;;;5.00;5.00;;;;;;;;5039184;28;8763;-74
2022/07/09 08:35:09;;;;;;;;;5.00;5.00;;;;;;;;5039390;28;8785;-75
2022/07/09 08:37:36;;;;;;;;;4.60;3.80;;;;;;;;5056464;28;9059;-74
2022/07/09 08:40:02;;;;;;;;;2.20;2.20;;;;;;;;5040074;28;8796;-74
2022/07/09 08:42:30;;;;;;;;;4.60;3.40;;;;;;;;5038850;28;8782;-74
2022/07/09 08:44:57;;;;;;;;;2.60;2.60;;;;;;;;5039421;28;8817;-79
2022/07/09 08:47:23;;;;;;;;;4.20;3.20;;;;;;;;5038802;28;8763;-75
2022/07/09 08:49:50;;;;;;;;;3.60;3.00;;;;;;;;5038909;28;8774;-74
2022/07/09 08:52:17;;;;;;;;;5.80;3.80;;;;;;;;5023030;28;8790;-75
2022/07/09 08:54:43;;;;;;;;;3.20;3.20;;;;;;;;5038387;28;8755;-75
2022/07/09 08:57:10;;;;;;;;;5.40;4.00;;;;;;;;5056590;28;8863;-74
2022/07/09 08:59:36;;;;;;;;;7.40;7.20;;;;;;;;5022050;28;8767;-74
2022/07/09 09:02:08;;;;;;;;;7.40;7.00;;;;;;;;5022403;28;8751;-75
2022/07/09 09:04:34;;;;;;;;;16.60;14.20;;;;;;;;5038456;28;8779;-75
2022/07/09 09:07:12;;;;;;;;;5.60;5.40;;;;;;;;5022655;28;8771;-75
2022/07/09 09:09:38;;;;;;;;;4.00;4.00;;;;;;;;5038291;28;8882;-75
2022/07/09 09:12:05;;;;;;;;;7.40;5.60;;;;;;;;5056187;28;8802;-74
2022/07/09 09:14:32;;;;;;;;;2.80;2.00;;;;;;;;5038462;28;8758;-75
2022/07/09 09:17:11;;;;;;;;;5.00;4.40;;;;;;;;5038433;28;8820;-75
2022/07/09 09:19:39;;;;;;;;;3.60;3.00;;;;;;;;5038417;28;8890;-75
2022/07/09 09:22:05;;;;;;;;;4.20;4.20;;;;;;;;5039220;28;8754;-75
2022/07/09 09:24:34;;;;;;;;;5.60;3.60;;;;;;;;5055686;28;8758;-75
2022/07/09 09:27:00;;;;;;;;;4.00;4.00;;;;;;;;5037937;28;8782;-75
2022/07/09 09:29:28;;;;;;;;;5.20;3.80;;;;;;;;5037918;28;8806;-75
2022/07/09 09:31:55;;;;;;;;;3.80;3.80;;;;;;;;5055912;28;9510;-75
2022/07/09 09:34:23;;;;;;;;;4.00;4.00;;;;;;;;5018555;28;8765;-75
2022/07/09 09:36:56;;;;;;;;;4.00;4.00;;;;;;;;5036106;28;8797;-75
2022/07/09 09:39:27;;;;;;;;;4.80;4.80;;;;;;;;5018561;28;8758;-74
2022/07/09 09:41:56;;;;;;;;;3.00;3.00;;;;;;;;5018633;28;8753;-74
2022/07/09 09:44:26;;;;;;;;;4.00;4.00;;;;;;;;5035604;28;8778;-74
2022/07/09 09:46:53;;;;;;;;;5.00;4.80;;;;;;;;5018296;28;8777;-75
2022/07/09 09:49:20;;;;;;;;;5.60;3.80;;;;;;;;5032603;28;9438;-75
2022/07/09 09:51:47;;;;;;;;;5.60;4.00;;;;;;;;5037887;28;8818;-75
2022/07/09 09:54:14;;;;;;;;;6.40;3.80;;;;;;;;5055419;28;8820;-75
2022/07/09 09:56:41;;;;;;;;;6.40;5.00;;;;;;;;5021119;28;8762;-74
2022/07/09 09:59:07;;;;;;;;;5.00;3.20;;;;;;;;5037772;28;8787;-75
2022/07/09 10:01:34;;;;;;;;;3.20;3.00;;;;;;;;5055035;28;8783;-75
2022/07/09 10:04:01;;;;;;;;;3.00;3.00;;;;;;;;5055805;28;8739;-75
2022/07/09 10:06:27;;;;;;;;;3.00;3.00;;;;;;;;5020673;28;9426;-75
2022/07/09 10:08:55;;;;;;;;;5.40;4.20;;;;;;;;5054993;28;8877;-75
2022/07/09 10:11:22;;;;;;;;;4.00;4.00;;;;;;;;5037256;28;8758;-75
2022/07/09 10:13:52;;;;;;;;;6.80;4.60;;;;;;;;5037174;28;8766;-75
2022/07/09 10:16:18;;;;;;;;;5.80;5.00;;;;;;;;5055529;28;8740;-74
2022/07/09 10:18:55;;;;;;;;;6.80;6.00;;;;;;;;5036764;28;8807;-75
2022/07/09 10:21:41;;;;;;;;;8.80;6.40;;;;;;;;5037153;28;8796;-74
2022/07/09 10:24:08;;;;;;;;;7.80;5.20;;;;;;;;5054846;28;8786;-75
2022/07/09 10:26:47;;;;;;;;;9.40;6.20;;;;;;;;5020417;28;9406;-75
2022/07/09 10:29:24;;;;;;;;;10.40;9.00;;;;;;;;5036885;28;9184;-75
2022/07/09 10:31:51;;;;;;;;;6.00;6.00;;;;;;;;5020613;28;9480;-74
2022/07/09 10:34:36;;;;;;;;;6.60;6.40;;;;;;;;5055033;28;8786;-81
2022/07/09 10:37:04;;;;;;;;;6.00;6.00;;;;;;;;5055154;28;8774;-74
2022/07/09 10:39:31;;;;;;;;;8.20;7.80;;;;;;;;5053226;28;8859;-75
2022/07/09 10:42:08;;;;;;;;;11.60;10.00;;;;;;;;5036968;28;8770;-75
2022/07/09 10:44:35;;;;;;;;;13.80;12.40;;;;;;;;5036376;28;8771;-75
2022/07/09 10:47:02;;;;;;;;;12.75;11.50;;;;;;;;5036873;28;8751;-75
2022/07/09 10:49:29;;;;;;;;;15.60;12.20;;;;;;;;5054041;28;8821;-75
2022/07/09 10:51:57;;;;;;;;;7.60;7.60;;;;;;;;5055266;28;8827;-75
2022/07/09 10:54:24;;;;;;;;;7.20;6.80;;;;;;;;5054232;28;8766;-75
2022/07/09 10:56:50;;;;;;;;;18.40;13.00;;;;;;;;5036901;28;8766;-75
2022/07/09 10:59:20;;;;;;;;;30.40;22.80;;;;;;;;5036710;28;8787;-77
2022/07/09 11:01:47;;;;;;;;;14.20;13.00;;;;;;;;5020816;28;8770;-75
2022/07/09 11:04:24;;;;;;;;;9.80;7.40;;;;;;;;5036989;28;9559;-74
2022/07/09 11:06:53;;;;;;;;;6.80;6.00;;;;;;;;5054540;28;8763;-76
2022/07/09 11:09:20;;;;;;;;;10.00;7.00;;;;;;;;5036825;28;8755;-75
2022/07/09 11:11:47;;;;;;;;;8.40;6.20;;;;;;;;5036471;28;8778;-76
2022/07/09 11:14:14;;;;;;;;;8.00;7.00;;;;;;;;5054501;28;8786;-78
2022/07/09 11:16:41;;;;;;;;;9.20;6.40;;;;;;;;5036172;28;8754;-76
2022/07/09 11:19:17;;;;;;;;;8.80;7.80;;;;;;;;5054562;28;8823;-76
2022/07/09 11:21:43;;;;;;;;;7.00;6.40;;;;;;;;5054068;28;8766;-74
2022/07/09 11:24:17;;;;;;;;;10.60;7.80;;;;;;;;5036367;28;8811;-75
2022/07/09 11:26:43;;;;;;;;;10.20;8.60;;;;;;;;5054220;28;8863;-75
2022/07/09 11:29:10;;;;;;;;;14.20;12.00;;;;;;;;5054181;28;8759;-75
2022/07/09 11:31:37;;;;;;;;;19.00;17.60;;;;;;;;5036300;28;8864;-75
2022/07/09 11:34:13;;;;;;;;;16.20;15.60;;;;;;;;5037063;28;8798;-75
2022/07/09 11:36:46;;;;;;;;;18.00;15.80;;;;;;;;5032632;28;9517;-75
2022/07/09 11:39:27;;;;;;;;;9.80;6.60;;;;;;;;5032495;28;8780;-74
2022/07/09 11:41:53;;;;;;;;;15.00;13.20;;;;;;;;5034076;28;8780;-74
2022/07/09 11:44:27;;;;;;;;;13.40;13.40;;;;;;;;5032637;28;8768;-79
2022/07/09 11:47:01;;;;;;;;;12.00;12.00;;;;;;;;5033127;28;9466;-75
2022/07/09 11:49:40;;;;;;;;;15.20;13.40;;;;;;;;5033480;28;8796;-75
2022/07/09 11:52:20;;;;;;;;;14.00;11.60;;;;;;;;5037201;28;8962;-75
2022/07/09 11:54:59;;;;;;;;;13.60;11.20;;;;;;;;5037776;28;8883;-75
2022/07/09 11:57:25;;;;;;;;;13.40;11.80;;;;;;;;5037486;28;8768;-74
2022/07/09 11:59:52;;;;;;;;;12.00;10.00;;;;;;;;5036628;28;8775;-74
2022/07/09 12:02:25;;;;;;;;;13.00;10.20;;;;;;;;5036377;28;8772;-75
2022/07/09 12:04:52;;;;;;;;;13.00;11.00;;;;;;;;5016517;28;8774;-75
2022/07/09 12:07:19;;;;;;;;;11.00;10.00;;;;;;;;5017083;28;9500;-75
2022/07/09 12:09:45;;;;;;;;;15.00;13.00;;;;;;;;5017609;28;8779;-81
2022/07/09 12:12:12;;;;;;;;;17.80;15.00;;;;;;;;5000086;28;8758;-74
2022/07/09 12:14:39;;;;;;;;;14.80;12.80;;;;;;;;5017555;28;8824;-74
2022/07/09 12:17:05;;;;;;;;;13.80;13.80;;;;;;;;5016587;28;9418;-79
2022/07/09 12:19:32;;;;;;;;;15.40;13.00;;;;;;;;5032684;28;8804;-74
2022/07/09 12:21:59;;;;;;;;;15.20;12.00;;;;;;;;5038046;28;8788;-75
2022/07/09 12:24:26;;;;;;;;;11.40;11.40;;;;;;;;5036698;28;8853;-74
2022/07/09 12:26:52;;;;;;;;;6.20;6.20;;;;;;;;5019718;28;8779;-74
2022/07/09 12:29:19;;;;;;;;;7.20;7.00;;;;;;;;5035775;28;8776;-75
2022/07/09 12:31:45;;;;;;;;;9.00;6.80;;;;;;;;5036117;28;8760;-75
2022/07/09 12:34:12;;;;;;;;;12.20;8.20;;;;;;;;5037398;28;8807;-74
2022/07/09 12:36:41;;;;;;;;;12.80;9.40;;;;;;;;5035537;28;8799;-75
2022/07/09 12:39:07;;;;;;;;;10.80;7.80;;;;;;;;5036833;28;8946;-74
2022/07/09 12:41:34;;;;;;;;;9.80;7.00;;;;;;;;5036776;28;8764;-75
2022/07/09 12:44:01;;;;;;;;;10.20;8.40;;;;;;;;5019474;28;8756;-79
2022/07/09 12:46:27;;;;;;;;;11.80;8.60;;;;;;;;5019316;28;8812;-74
2022/07/09 12:48:54;;;;;;;;;10.60;9.00;;;;;;;;5035923;28;8784;-75
2022/07/09 12:51:20;;;;;;;;;11.60;9.20;;;;;;;;5018969;28;8816;-74
2022/07/09 12:53:47;;;;;;;;;10.60;9.40;;;;;;;;5035565;28;8914;-74
2022/07/09 12:56:14;;;;;;;;;8.60;5.20;;;;;;;;5035514;28;8891;-74
2022/07/09 12:58:41;;;;;;;;;8.60;6.80;;;;;;;;5035409;28;8808;-75
2022/07/09 13:01:07;;;;;;;;;7.20;6.00;;;;;;;;5036282;28;8772;-74
2022/07/09 13:03:34;;;;;;;;;7.80;6.80;;;;;;;;5035129;28;9432;-74
2022/07/09 13:06:01;;;;;;;;;7.80;7.00;;;;;;;;5035320;28;8874;-75
2022/07/09 13:08:27;;;;;;;;;5.20;4.40;;;;;;;;5036115;28;8796;-75
2022/07/09 13:10:54;;;;;;;;;4.60;3.00;;;;;;;;5035206;28;8764;-78
2022/07/09 13:13:21;;;;;;;;;3.60;3.40;;;;;;;;5036837;28;8871;-75
2022/07/09 13:15:48;;;;;;;;;3.60;3.00;;;;;;;;5035085;28;8784;-75
2022/07/09 13:18:15;;;;;;;;;5.00;3.00;;;;;;;;5034795;28;8800;-75
2022/07/09 13:20:42;;;;;;;;;3.40;3.40;;;;;;;;5034950;28;8756;-74
2022/07/09 13:23:08;;;;;;;;;1.40;0.80;;;;;;;;5035099;28;8857;-75
2022/07/09 13:25:35;;;;;;;;;2.00;2.00;;;;;;;;5018401;28;8899;-75
2022/07/09 13:28:02;;;;;;;;;3.60;2.40;;;;;;;;5019295;28;8749;-74
2022/07/09 13:30:28;;;;;;;;;4.40;3.60;;;;;;;;5035603;28;8784;-75
2022/07/09 13:32:55;;;;;;;;;6.00;3.40;;;;;;;;5018280;28;8878;-75
2022/07/09 13:35:24;;;;;;;;;7.00;4.60;;;;;;;;5035758;28;8764;-74
2022/07/09 13:37:50;;;;;;;;;9.60;4.40;;;;;;;;5034598;28;8808;-79
2022/07/09 13:40:17;;;;;;;;;9.40;6.60;;;;;;;;5035247;28;8796;-75
2022/07/09 13:42:44;;;;;;;;;12.00;7.00;;;;;;;;5035740;28;8772;-75
2022/07/09 13:45:11;;;;;;;;;5.60;5.00;;;;;;;;5034628;28;8829;-75
2022/07/09 13:47:38;;;;;;;;;12.60;8.00;;;;;;;;5017636;28;8772;-75
2022/07/09 13:50:05;;;;;;;;;13.20;9.00;;;;;;;;5034612;28;8760;-80
2022/07/09 13:52:31;;;;;;;;;10.80;9.40;;;;;;;;5017688;28;8829;-75
2022/07/09 13:54:58;;;;;;;;;12.60;7.60;;;;;;;;5036267;28;8753;-75
2022/07/09 13:57:25;;;;;;;;;8.60;8.40;;;;;;;;5033865;28;8776;-74
2022/07/09 13:59:51;;;;;;;;;9.40;8.00;;;;;;;;5035329;28;8784;-75
2022/07/09 14:02:18;;;;;;;;;7.20;6.80;;;;;;;;5034130;28;8772;-75
2022/07/09 14:04:46;;;;;;;;;14.60;9.00;;;;;;;;5034113;28;8785;-79
2022/07/09 14:07:13;;;;;;;;;6.60;6.60;;;;;;;;5035632;28;8853;-74
2022/07/09 14:09:40;;;;;;;;;6.20;6.20;;;;;;;;5033963;28;8920;-74
2022/07/09 14:12:06;;;;;;;;;6.00;5.00;;;;;;;;5033945;28;8810;-75
2022/07/09 14:14:33;;;;;;;;;5.00;5.00;;;;;;;;5034860;28;8807;-75
2022/07/09 14:17:00;;;;;;;;;5.80;4.20;;;;;;;;5017746;28;8749;-75
2022/07/09 14:19:27;;;;;;;;;6.80;4.00;;;;;;;;5033535;28;8943;-75
2022/07/09 14:21:53;;;;;;;;;10.40;4.60;;;;;;;;5035763;28;8744;-75
2022/07/09 14:24:20;;;;;;;;;7.60;6.40;;;;;;;;5034794;28;9443;-75
2022/07/09 14:26:47;;;;;;;;;7.40;5.80;;;;;;;;5033839;28;8776;-74
2022/07/09 14:29:14;;;;;;;;;6.20;5.00;;;;;;;;5033820;28;8800;-74
2022/07/09 14:31:41;;;;;;;;;4.80;4.00;;;;;;;;5033687;28;8745;-79
2022/07/09 14:34:07;;;;;;;;;5.20;4.20;;;;;;;;5014528;28;8810;-75
2022/07/09 14:36:34;;;;;;;;;10.00;6.60;;;;;;;;5018858;28;8908;-75
2022/07/09 14:39:02;;;;;;;;;7.80;5.00;;;;;;;;5017099;28;8812;-75
2022/07/09 14:41:29;;;;;;;;;4.00;3.20;;;;;;;;5016961;28;9444;-75
2022/07/09 14:43:55;;;;;;;;;4.60;3.00;;;;;;;;5034896;28;8783;-75
2022/07/09 14:46:22;;;;;;;;;6.20;4.00;;;;;;;;5035186;28;8749;-74
2022/07/09 14:48:49;;;;;;;;;4.40;3.00;;;;;;;;5006827;28;8792;-75
2022/07/09 14:51:15;;;;;;;;;1.80;1.00;;;;;;;;5017055;28;8817;-75
2022/07/09 14:53:42;;;;;;;;;4.60;3.60;;;;;;;;5033167;28;8777;-75